sensor_id;sensor_type;location;lat;lon;timestamp;temperature;humidity
16980;DHT22;42288;52.182;21.156;2024-01-15T00:02:15;2.70;99.90
16980;DHT22;42288;52.182;21.156;2024-01-15T00:04:41;2.60;99.90
16980;DHT22;42288;52.182;21.156;2024-01-15T00:07:07;2.70;99.90
16980;DHT22;42288;52.182;21.156;2024-01-15T00:09:33;2.70;99.90
16980;DHT22;42288;52.182;21.156;2024-01-15T00:11:59;2.80;99.90
16980;DHT22;42288;52.182;21.156;2024-01-15T00:14:25;2.60;99.90
16980;DHT22;42288;52.182;21.156;2024-01-15T00:16:51;2.70;99.90
16980;DHT22;42288;52.182;21.156;2024-01-15T00:19:17;2.70;99.90
16980;DHT22;42288;52.182;21.156;2024-01-15T00:21:44;2.70;99.90
16980;DHT22;42288;52.182;21.156;2024-01-15T00:24:09;2.70;99.90
16980;DHT22;42288;52.182;21.156;2024-01-15T00:26:35;2.70;99.90
16980;DHT22;42288;52.182;21.156;2024-01-15T00:29:00;2.70;99.90
16980;DHT22;42288;52.182;21.156;2024-01-15T00:31:26;2.70;99.90
16980;DHT22;42288;52.182;21.156;2024-01-15T00:33:51;2.70;99.90
16980;DHT22;42288;52.182;21.156;2024-01-15T00:36:17;2.70;99.90
16980;DHT22;42288;52.182;21.156;2024-01-15T00:38:44;2.50;99.90
16980;DHT22;42288;52.182;21.156;2024-01-15T00:41:09;2.50;99.90
16980;DHT22;42288;52.182;21.156;2024-01-15T00:43:35;2.50;99.90
16980;DHT22;42288;52.182;21.156;2024-01-15T00:46:04;2.50;99.90
16980;DHT22;42288;52.182;21.156;2024-01-15T00:48:29;2.50;99.90
16980;DHT22;42288;52.182;21.156;2024-01-15T00:50:55;2.60;99.90
16980;DHT22;42288;52.182;21.156;2024-01-15T00:53:20;2.60;99.90
16980;DHT22;42288;52.182;21.156;2024-01-15T00:55:49;2.60;99.90
16980;DHT22;42288;52.182;21.156;2024-01-15T00:58:15;2.60;99.90
16980;DHT22;42288;52.182;21.156;2024-01-15T01:00:41;2.50;99.90
16980;DHT22;42288;52.182;21.156;2024-01-15T01:03:07;2.60;99.90
16980;DHT22;42288;52.182;21.156;2024-01-15T01:05:34;2.50;99.90
16980;DHT22;42288;52.182;21.156;2024-01-15T01:07:59;2.60;99.90
16980;DHT22;42288;52.182;21.156;2024-01-15T01:10:25;2.50;99.90
16980;DHT22;42288;52.182;21.156;2024-01-15T01:12:50;2.50;99.90
16980;DHT22;42288;52.182;21.156;2024-01-15T01:15:16;2.40;99.90
16980;DHT22;42288;52.182;21.156;2024-01-15T01:17:41;2.30;99.90
16980;DHT22;42288;52.182;21.156;2024-01-15T01:20:07;2.30;99.90
16980;DHT22;42288;52.182;21.156;2024-01-15T01:22:34;2.20;99.90
16980;DHT22;42288;52.182;21.156;2024-01-15T01:25:00;2.30;99.90
16980;DHT22;42288;52.182;21.156;2024-01-15T01:27:26;2.20;99.90
16980;DHT22;42288;52.182;21.156;2024-01-15T01:29:51;2.20;99.90
16980;DHT22;42288;52.182;21.156;2024-01-15T01:32:17;2.30;99.90
16980;DHT22;42288;52.182;21.156;2024-01-15T01:34:42;2.20;99.90
16980;DHT22;42288;52.182;21.156;2024-01-15T01:37:09;2.10;99.90
16980;DHT22;42288;52.182;21.156;2024-01-15T01:39:34;2.10;99.90
16980;DHT22;42288;52.182;21.156;2024-01-15T01:42:00;2.00;99.90
16980;DHT22;42288;52.182;21.156;2024-01-15T01:44:26;2.10;99.90
16980;DHT22;42288;52.182;21.156;2024-01-15T01:46:51;2.20;99.90
16980;DHT22;42288;52.182;21.156;2024-01-15T01:49:17;2.20;99.90
16980;DHT22;42288;52.182;21.156;2024-01-15T01:51:43;2.20;99.90
16980;DHT22;42288;52.182;21.156;2024-01-15T01:54:09;2.20;99.90
16980;DHT22;42288;52.182;21.156;2024-01-15T01:56:38;2.20;99.90
16980;DHT22;42288;52.182;21.156;2024-01-15T01:59:04;2.00;99.90
16980;DHT22;42288;52.182;21.156;2024-01-15T02:01:31;2.10;99.90
16980;DHT22;42288;52.182;21.156;2024-01-15T02:03:57;2.10;99.90
16980;DHT22;42288;52.182;21.156;2024-01-15T02:06:23;2.10;99.90
16980;DHT22;42288;52.182;21.156;2024-01-15T02:08:49;2.20;99.90
16980;DHT22;42288;52.182;21.156;2024-01-15T02:11:15;2.10;99.90
16980;DHT22;42288;52.182;21.156;2024-01-15T02:13:41;2.20;99.90
16980;DHT22;42288;52.182;21.156;2024-01-15T02:16:06;2.20;99.90
16980;DHT22;42288;52.182;21.156;2024-01-15T02:18:42;2.10;99.90
16980;DHT22;42288;52.182;21.156;2024-01-15T02:21:08;2.30;99.90
16980;DHT22;42288;52.182;21.156;2024-01-15T02:23:33;2.30;99.90
16980;DHT22;42288;52.182;21.156;2024-01-15T02:25:59;2.30;99.90
16980;DHT22;42288;52.182;21.156;2024-01-15T02:28:24;2.30;99.90
16980;DHT22;42288;52.182;21.156;2024-01-15T02:30:50;2.30;99.90
16980;DHT22;42288;52.182;21.156;2024-01-15T02:33:16;2.30;99.90
16980;DHT22;42288;52.182;21.156;2024-01-15T02:35:41;2.20;99.90
16980;DHT22;42288;52.182;21.156;2024-01-15T02:38:07;2.20;99.90
16980;DHT22;42288;52.182;21.156;2024-01-15T02:40:33;2.30;99.90
16980;DHT22;42288;52.182;21.156;2024-01-15T02:42:58;2.30;99.90
16980;DHT22;42288;52.182;21.156;2024-01-15T02:45:24;2.30;99.90
16980;DHT22;42288;52.182;21.156;2024-01-15T02:47:50;2.40;99.90
16980;DHT22;42288;52.182;21.156;2024-01-15T02:50:15;2.30;99.90
16980;DHT22;42288;52.182;21.156;2024-01-15T02:52:41;2.30;99.90
16980;DHT22;42288;52.182;21.156;2024-01-15T02:55:07;2.40;99.90
16980;DHT22;42288;52.182;21.156;2024-01-15T02:57:33;2.50;99.90
16980;DHT22;42288;52.182;21.156;2024-01-15T02:59:59;2.40;99.90
16980;DHT22;42288;52.182;21.156;2024-01-15T03:02:24;2.40;99.90
16980;DHT22;42288;52.182;21.156;2024-01-15T03:04:50;2.40;99.90
16980;DHT22;42288;52.182;21.156;2024-01-15T03:07:16;2.30;99.90
16980;DHT22;42288;52.182;21.156;2024-01-15T03:09:41;2.30;99.90
16980;DHT22;42288;52.182;21.156;2024-01-15T03:12:07;2.40;99.90
16980;DHT22;42288;52.182;21.156;2024-01-15T03:14:33;2.40;99.90
16980;DHT22;42288;52.182;21.156;2024-01-15T03:16:58;2.30;99.90
16980;DHT22;42288;52.182;21.156;2024-01-15T03:19:24;2.40;99.90
16980;DHT22;42288;52.182;21.156;2024-01-15T03:21:49;2.40;99.90
16980;DHT22;42288;52.182;21.156;2024-01-15T03:24:15;2.30;99.90
16980;DHT22;42288;52.182;21.156;2024-01-15T03:26:40;2.50;99.90
16980;DHT22;42288;52.182;21.156;2024-01-15T03:29:06;2.40;99.90
16980;DHT22;42288;52.182;21.156;2024-01-15T03:31:32;2.40;99.90
16980;DHT22;42288;52.182;21.156;2024-01-15T03:33:58;2.20;99.90
16980;DHT22;42288;52.182;21.156;2024-01-15T03:36:23;2.20;99.90
16980;DHT22;42288;52.182;21.156;2024-01-15T03:38:49;2.10;99.90
16980;DHT22;42288;52.182;21.156;2024-01-15T03:41:14;2.10;99.90
16980;DHT22;42288;52.182;21.156;2024-01-15T03:43:40;2.10;99.90
16980;DHT22;42288;52.182;21.156;2024-01-15T03:46:06;2.10;99.90
16980;DHT22;42288;52.182;21.156;2024-01-15T03:48:32;2.00;99.90
16980;DHT22;42288;52.182;21.156;2024-01-15T03:50:57;2.00;99.90
16980;DHT22;42288;52.182;21.156;2024-01-15T03:53:23;2.00;99.90
16980;DHT22;42288;52.182;21.156;2024-01-15T03:55:49;2.00;99.90
16980;DHT22;42288;52.182;21.156;2024-01-15T03:58:15;1.90;99.90
16980;DHT22;42288;52.182;21.156;2024-01-15T04:00:41;2.00;99.90
16980;DHT22;42288;52.182;21.156;2024-01-15T04:03:06;2.10;99.90
16980;DHT22;42288;52.182;21.156;2024-01-15T04:05:32;2.10;99.90
16980;DHT22;42288;52.182;21.156;2024-01-15T04:07:57;2.10;99.90
16980;DHT22;42288;52.182;21.156;2024-01-15T04:10:23;2.10;99.90
16980;DHT22;42288;52.182;21.156;2024-01-15T04:12:48;2.10;99.90
16980;DHT22;42288;52.182;21.156;2024-01-15T04:15:15;2.10;99.90
16980;DHT22;42288;52.182;21.156;2024-01-15T04:17:41;2.10;99.90
16980;DHT22;42288;52.182;21.156;2024-01-15T04:20:07;2.10;99.90
16980;DHT22;42288;52.182;21.156;2024-01-15T04:22:34;2.00;99.90
16980;DHT22;42288;52.182;21.156;2024-01-15T04:25:00;2.00;99.90
16980;DHT22;42288;52.182;21.156;2024-01-15T04:27:25;2.00;99.90
16980;DHT22;42288;52.182;21.156;2024-01-15T04:29:51;2.00;99.90
16980;DHT22;42288;52.182;21.156;2024-01-15T04:32:16;2.00;99.90
16980;DHT22;42288;52.182;21.156;2024-01-15T04:34:42;2.00;99.90
16980;DHT22;42288;52.182;21.156;2024-01-15T04:37:07;2.10;99.90
16980;DHT22;42288;52.182;21.156;2024-01-15T04:39:33;2.10;99.90
16980;DHT22;42288;52.182;21.156;2024-01-15T04:41:58;2.10;99.90
16980;DHT22;42288;52.182;21.156;2024-01-15T04:44:24;2.10;99.90
16980;DHT22;42288;52.182;21.156;2024-01-15T04:46:49;2.10;99.90
16980;DHT22;42288;52.182;21.156;2024-01-15T04:49:15;2.20;99.90
16980;DHT22;42288;52.182;21.156;2024-01-15T04:51:40;2.10;99.90
16980;DHT22;42288;52.182;21.156;2024-01-15T04:54:06;2.20;99.90
16980;DHT22;42288;52.182;21.156;2024-01-15T04:56:32;2.10;99.90
16980;DHT22;42288;52.182;21.156;2024-01-15T04:58:57;2.20;99.90
16980;DHT22;42288;52.182;21.156;2024-01-15T05:01:23;2.20;99.90
16980;DHT22;42288;52.182;21.156;2024-01-15T05:03:48;2.20;99.90
16980;DHT22;42288;52.182;21.156;2024-01-15T05:06:14;2.00;99.90
16980;DHT22;42288;52.182;21.156;2024-01-15T05:08:40;2.10;99.90
16980;DHT22;42288;52.182;21.156;2024-01-15T05:11:05;2.10;99.90
16980;DHT22;42288;52.182;21.156;2024-01-15T05:13:31;2.10;99.90
16980;DHT22;42288;52.182;21.156;2024-01-15T05:15:57;2.10;99.90
16980;DHT22;42288;52.182;21.156;2024-01-15T05:18:22;2.10;99.90
16980;DHT22;42288;52.182;21.156;2024-01-15T05:20:48;2.10;99.90
16980;DHT22;42288;52.182;21.156;2024-01-15T05:23:13;2.20;99.90
16980;DHT22;42288;52.182;21.156;2024-01-15T05:25:39;2.20;99.90
16980;DHT22;42288;52.182;21.156;2024-01-15T05:28:05;2.30;99.90
16980;DHT22;42288;52.182;21.156;2024-01-15T05:30:30;2.10;99.90
16980;DHT22;42288;52.182;21.156;2024-01-15T05:32:56;2.20;99.90
16980;DHT22;42288;52.182;21.156;2024-01-15T05:35:22;2.20;99.90
16980;DHT22;42288;52.182;21.156;2024-01-15T05:37:48;2.20;99.90
16980;DHT22;42288;52.182;21.156;2024-01-15T05:40:14;2.20;99.90
16980;DHT22;42288;52.182;21.156;2024-01-15T05:42:40;2.20;99.90
16980;DHT22;42288;52.182;21.156;2024-01-15T05:45:06;2.20;99.90
16980;DHT22;42288;52.182;21.156;2024-01-15T05:47:32;2.20;99.90
16980;DHT22;42288;52.182;21.156;2024-01-15T05:49:58;2.30;99.90
16980;DHT22;42288;52.182;21.156;2024-01-15T05:52:24;2.20;99.90
16980;DHT22;42288;52.182;21.156;2024-01-15T05:54:49;2.30;99.90
16980;DHT22;42288;52.182;21.156;2024-01-15T05:57:15;2.20;99.90
16980;DHT22;42288;52.182;21.156;2024-01-15T05:59:41;2.10;99.90
16980;DHT22;42288;52.182;21.156;2024-01-15T06:02:06;2.20;99.90
16980;DHT22;42288;52.182;21.156;2024-01-15T06:04:32;2.20;99.90
16980;DHT22;42288;52.182;21.156;2024-01-15T06:06:57;2.30;99.90
16980;DHT22;42288;52.182;21.156;2024-01-15T06:09:23;2.30;99.90
16980;DHT22;42288;52.182;21.156;2024-01-15T06:11:49;2.30;99.90
16980;DHT22;42288;52.182;21.156;2024-01-15T06:14:14;2.40;99.90
16980;DHT22;42288;52.182;21.156;2024-01-15T06:16:40;2.20;99.90
16980;DHT22;42288;52.182;21.156;2024-01-15T06:19:05;2.20;99.90
16980;DHT22;42288;52.182;21.156;2024-01-15T06:21:31;2.20;99.90
16980;DHT22;42288;52.182;21.156;2024-01-15T06:23:56;2.20;99.90
16980;DHT22;42288;52.182;21.156;2024-01-15T06:26:22;2.20;99.90
16980;DHT22;42288;52.182;21.156;2024-01-15T06:28:48;2.30;99.90
16980;DHT22;42288;52.182;21.156;2024-01-15T06:31:14;2.20;99.90
16980;DHT22;42288;52.182;21.156;2024-01-15T06:33:39;2.30;99.90
16980;DHT22;42288;52.182;21.156;2024-01-15T06:36:05;2.30;99.90
16980;DHT22;42288;52.182;21.156;2024-01-15T06:38:31;2.40;99.90
16980;DHT22;42288;52.182;21.156;2024-01-15T06:40:57;2.30;99.90
16980;DHT22;42288;52.182;21.156;2024-01-15T06:43:22;2.30;99.90
16980;DHT22;42288;52.182;21.156;2024-01-15T06:45:48;2.30;99.90
16980;DHT22;42288;52.182;21.156;2024-01-15T06:48:14;2.30;99.90
16980;DHT22;42288;52.182;21.156;2024-01-15T06:50:44;2.40;99.90
16980;DHT22;42288;52.182;21.156;2024-01-15T06:53:10;2.40;99.90
16980;DHT22;42288;52.182;21.156;2024-01-15T06:55:35;2.30;99.90
16980;DHT22;42288;52.182;21.156;2024-01-15T06:58:01;2.40;99.90
16980;DHT22;42288;52.182;21.156;2024-01-15T07:00:26;2.30;99.90
16980;DHT22;42288;52.182;21.156;2024-01-15T07:02:53;2.40;99.90
16980;DHT22;42288;52.182;21.156;2024-01-15T07:05:20;2.50;99.90
16980;DHT22;42288;52.182;21.156;2024-01-15T07:07:45;2.50;99.90
16980;DHT22;42288;52.182;21.156;2024-01-15T07:10:11;2.50;99.90
16980;DHT22;42288;52.182;21.156;2024-01-15T07:12:37;2.40;99.90
16980;DHT22;42288;52.182;21.156;2024-01-15T07:15:03;2.50;99.90
16980;DHT22;42288;52.182;21.156;2024-01-15T07:17:29;2.40;99.90
16980;DHT22;42288;52.182;21.156;2024-01-15T07:19:56;2.40;99.90
16980;DHT22;42288;52.182;21.156;2024-01-15T07:22:21;2.40;99.90
16980;DHT22;42288;52.182;21.156;2024-01-15T07:24:47;2.40;99.90
16980;DHT22;42288;52.182;21.156;2024-01-15T07:27:12;2.30;99.90
16980;DHT22;42288;52.182;21.156;2024-01-15T07:29:38;2.20;99.90
16980;DHT22;42288;52.182;21.156;2024-01-15T07:32:04;2.20;99.90
16980;DHT22;42288;52.182;21.156;2024-01-15T07:34:30;2.30;99.90
16980;DHT22;42288;52.182;21.156;2024-01-15T07:36:56;2.20;99.90
16980;DHT22;42288;52.182;21.156;2024-01-15T07:39:22;2.20;99.90
16980;DHT22;42288;52.182;21.156;2024-01-15T07:41:50;2.10;99.90
16980;DHT22;42288;52.182;21.156;2024-01-15T07:44:15;2.10;99.90
16980;DHT22;42288;52.182;21.156;2024-01-15T07:46:47;1.90;99.90
16980;DHT22;42288;52.182;21.156;2024-01-15T07:49:13;1.80;99.90
16980;DHT22;42288;52.182;21.156;2024-01-15T07:51:39;1.90;99.90
16980;DHT22;42288;52.182;21.156;2024-01-15T07:54:06;1.90;99.90
16980;DHT22;42288;52.182;21.156;2024-01-15T07:56:32;2.00;99.90
16980;DHT22;42288;52.182;21.156;2024-01-15T07:58:57;1.80;99.90
16980;DHT22;42288;52.182;21.156;2024-01-15T08:01:23;1.80;99.90
16980;DHT22;42288;52.182;21.156;2024-01-15T08:03:49;1.90;99.90
16980;DHT22;42288;52.182;21.156;2024-01-15T08:06:14;1.90;99.90
16980;DHT22;42288;52.182;21.156;2024-01-15T08:08:40;1.80;99.90
16980;DHT22;42288;52.182;21.156;2024-01-15T08:11:06;1.90;99.90
16980;DHT22;42288;52.182;21.156;2024-01-15T08:13:31;1.80;99.90
16980;DHT22;42288;52.182;21.156;2024-01-15T08:15:57;1.90;99.90
16980;DHT22;42288;52.182;21.156;2024-01-15T08:18:22;2.00;99.90
16980;DHT22;42288;52.182;21.156;2024-01-15T08:20:48;1.90;99.90
16980;DHT22;42288;52.182;21.156;2024-01-15T08:23:13;1.80;99.90
16980;DHT22;42288;52.182;21.156;2024-01-15T08:25:39;1.70;99.90
16980;DHT22;42288;52.182;21.156;2024-01-15T08:28:05;1.60;99.90
16980;DHT22;42288;52.182;21.156;2024-01-15T08:30:30;1.60;99.90
16980;DHT22;42288;52.182;21.156;2024-01-15T08:32:56;1.60;99.90
16980;DHT22;42288;52.182;21.156;2024-01-15T08:35:22;1.70;99.90
16980;DHT22;42288;52.182;21.156;2024-01-15T08:37:52;1.70;99.90
16980;DHT22;42288;52.182;21.156;2024-01-15T08:40:18;1.80;99.90
16980;DHT22;42288;52.182;21.156;2024-01-15T08:42:44;1.80;99.90
16980;DHT22;42288;52.182;21.156;2024-01-15T08:45:11;1.90;99.90
16980;DHT22;42288;52.182;21.156;2024-01-15T08:47:36;1.90;99.90
16980;DHT22;42288;52.182;21.156;2024-01-15T08:50:03;1.90;99.90
16980;DHT22;42288;52.182;21.156;2024-01-15T08:52:29;2.00;99.90
16980;DHT22;42288;52.182;21.156;2024-01-15T08:54:57;2.10;99.90
16980;DHT22;42288;52.182;21.156;2024-01-15T08:57:22;2.10;99.90
16980;DHT22;42288;52.182;21.156;2024-01-15T08:59:48;2.10;99.90
16980;DHT22;42288;52.182;21.156;2024-01-15T09:02:14;1.80;99.90
16980;DHT22;42288;52.182;21.156;2024-01-15T09:04:40;1.80;99.90
16980;DHT22;42288;52.182;21.156;2024-01-15T09:07:06;1.80;99.90
16980;DHT22;42288;52.182;21.156;2024-01-15T09:09:32;1.80;99.90
16980;DHT22;42288;52.182;21.156;2024-01-15T09:11:58;1.80;99.90
16980;DHT22;42288;52.182;21.156;2024-01-15T09:14:23;1.80;99.90
16980;DHT22;42288;52.182;21.156;2024-01-15T09:16:49;1.90;99.90
16980;DHT22;42288;52.182;21.156;2024-01-15T09:19:15;2.00;99.90
16980;DHT22;42288;52.182;21.156;2024-01-15T09:21:40;2.10;99.90
16980;DHT22;42288;52.182;21.156;2024-01-15T09:24:06;2.20;99.90
16980;DHT22;42288;52.182;21.156;2024-01-15T09:26:32;2.10;99.90
16980;DHT22;42288;52.182;21.156;2024-01-15T09:28:57;2.20;99.90
16980;DHT22;42288;52.182;21.156;2024-01-15T09:31:23;2.10;99.90
16980;DHT22;42288;52.182;21.156;2024-01-15T09:33:49;2.20;99.90
16980;DHT22;42288;52.182;21.156;2024-01-15T09:36:14;2.30;99.90
16980;DHT22;42288;52.182;21.156;2024-01-15T09:38:40;2.40;99.90
16980;DHT22;42288;52.182;21.156;2024-01-15T09:41:07;2.50;99.90
16980;DHT22;42288;52.182;21.156;2024-01-15T09:43:33;2.60;99.90
16980;DHT22;42288;52.182;21.156;2024-01-15T09:45:58;2.60;99.90
16980;DHT22;42288;52.182;21.156;2024-01-15T09:48:24;2.60;99.90
16980;DHT22;42288;52.182;21.156;2024-01-15T09:50:50;2.70;99.90
16980;DHT22;42288;52.182;21.156;2024-01-15T09:53:17;2.80;99.90
16980;DHT22;42288;52.182;21.156;2024-01-15T09:55:44;2.90;99.90
16980;DHT22;42288;52.182;21.156;2024-01-15T09:58:10;2.90;99.90
16980;DHT22;42288;52.182;21.156;2024-01-15T10:00:36;3.00;99.90
16980;DHT22;42288;52.182;21.156;2024-01-15T10:03:05;2.90;99.90
16980;DHT22;42288;52.182;21.156;2024-01-15T10:05:32;3.10;99.90
16980;DHT22;42288;52.182;21.156;2024-01-15T10:07:58;3.00;99.90
16980;DHT22;42288;52.182;21.156;2024-01-15T10:10:25;3.10;99.90
16980;DHT22;42288;52.182;21.156;2024-01-15T10:12:51;3.10;99.90
16980;DHT22;42288;52.182;21.156;2024-01-15T10:15:16;3.00;99.90
16980;DHT22;42288;52.182;21.156;2024-01-15T10:17:42;3.00;99.90
16980;DHT22;42288;52.182;21.156;2024-01-15T10:20:12;3.00;99.90
16980;DHT22;42288;52.182;21.156;2024-01-15T10:22:41;3.00;99.90
16980;DHT22;42288;52.182;21.156;2024-01-15T10:25:10;3.00;99.90
16980;DHT22;42288;52.182;21.156;2024-01-15T10:27:36;3.10;99.90
16980;DHT22;42288;52.182;21.156;2024-01-15T10:30:02;3.10;99.90
16980;DHT22;42288;52.182;21.156;2024-01-15T10:32:28;3.00;99.90
16980;DHT22;42288;52.182;21.156;2024-01-15T10:34:54;3.00;99.90
16980;DHT22;42288;52.182;21.156;2024-01-15T10:37:20;3.00;99.90
16980;DHT22;42288;52.182;21.156;2024-01-15T10:39:46;3.10;99.90
16980;DHT22;42288;52.182;21.156;2024-01-15T10:42:12;3.10;99.90
16980;DHT22;42288;52.182;21.156;2024-01-15T10:44:37;3.00;99.90
16980;DHT22;42288;52.182;21.156;2024-01-15T10:47:04;3.10;99.90
16980;DHT22;42288;52.182;21.156;2024-01-15T10:49:29;3.10;99.90
16980;DHT22;42288;52.182;21.156;2024-01-15T10:51:56;3.20;99.90
16980;DHT22;42288;52.182;21.156;2024-01-15T10:54:23;3.00;99.90
16980;DHT22;42288;52.182;21.156;2024-01-15T10:56:50;3.30;99.90
16980;DHT22;42288;52.182;21.156;2024-01-15T10:59:16;3.20;99.90
16980;DHT22;42288;52.182;21.156;2024-01-15T11:01:44;3.30;99.90
16980;DHT22;42288;52.182;21.156;2024-01-15T11:04:11;3.40;99.90
16980;DHT22;42288;52.182;21.156;2024-01-15T11:06:45;3.50;99.90
16980;DHT22;42288;52.182;21.156;2024-01-15T11:09:12;3.40;99.90
16980;DHT22;42288;52.182;21.156;2024-01-15T11:11:41;3.30;99.90
16980;DHT22;42288;52.182;21.156;2024-01-15T11:14:07;3.40;99.90
16980;DHT22;42288;52.182;21.156;2024-01-15T11:16:53;3.30;99.90
16980;DHT22;42288;52.182;21.156;2024-01-15T11:19:18;3.20;99.90
16980;DHT22;42288;52.182;21.156;2024-01-15T11:21:44;3.10;99.90
16980;DHT22;42288;52.182;21.156;2024-01-15T11:24:09;3.10;99.90
16980;DHT22;42288;52.182;21.156;2024-01-15T11:26:44;3.30;99.90
16980;DHT22;42288;52.182;21.156;2024-01-15T11:29:29;3.20;99.90
16980;DHT22;42288;52.182;21.156;2024-01-15T11:34:20;3.20;99.90
16980;DHT22;42288;52.182;21.156;2024-01-15T11:41:56;3.40;99.90
16980;DHT22;42288;52.182;21.156;2024-01-15T11:44:22;3.30;99.90
16980;DHT22;42288;52.182;21.156;2024-01-15T11:47:08;3.30;99.90
16980;DHT22;42288;52.182;21.156;2024-01-15T11:52:25;3.40;99.90
16980;DHT22;42288;52.182;21.156;2024-01-15T11:55:28;3.20;99.90
16980;DHT22;42288;52.182;21.156;2024-01-15T11:57:55;3.10;99.90
16980;DHT22;42288;52.182;21.156;2024-01-15T12:00:23;2.90;99.90
16980;DHT22;42288;52.182;21.156;2024-01-15T12:02:49;2.90;99.90
16980;DHT22;42288;52.182;21.156;2024-01-15T12:05:18;2.80;99.90
16980;DHT22;42288;52.182;21.156;2024-01-15T12:07:45;2.50;99.90
16980;DHT22;42288;52.182;21.156;2024-01-15T12:10:12;2.60;99.90
16980;DHT22;42288;52.182;21.156;2024-01-15T12:12:49;2.60;99.90
16980;DHT22;42288;52.182;21.156;2024-01-15T12:15:19;2.70;99.90
16980;DHT22;42288;52.182;21.156;2024-01-15T12:17:45;2.80;99.90
16980;DHT22;42288;52.182;21.156;2024-01-15T12:20:13;2.80;99.90
16980;DHT22;42288;52.182;21.156;2024-01-15T12:22:39;2.90;99.90
16980;DHT22;42288;52.182;21.156;2024-01-15T12:25:05;2.90;99.90
16980;DHT22;42288;52.182;21.156;2024-01-15T12:27:30;2.70;99.90
16980;DHT22;42288;52.182;21.156;2024-01-15T12:29:58;2.70;99.90
16980;DHT22;42288;52.182;21.156;2024-01-15T12:32:24;2.60;99.90
16980;DHT22;42288;52.182;21.156;2024-01-15T12:34:50;2.60;99.90
16980;DHT22;42288;52.182;21.156;2024-01-15T12:37:18;2.50;99.90
16980;DHT22;42288;52.182;21.156;2024-01-15T12:39:44;2.60;99.90
16980;DHT22;42288;52.182;21.156;2024-01-15T12:42:10;2.70;99.90
16980;DHT22;42288;52.182;21.156;2024-01-15T12:44:36;2.40;99.90
16980;DHT22;42288;52.182;21.156;2024-01-15T12:47:04;2.10;99.90
16980;DHT22;42288;52.182;21.156;2024-01-15T12:49:30;1.90;99.90
16980;DHT22;42288;52.182;21.156;2024-01-15T12:51:59;1.90;99.90
16980;DHT22;42288;52.182;21.156;2024-01-15T12:54:25;1.90;99.90
16980;DHT22;42288;52.182;21.156;2024-01-15T12:56:51;1.90;99.90
16980;DHT22;42288;52.182;21.156;2024-01-15T12:59:17;2.00;99.90
16980;DHT22;42288;52.182;21.156;2024-01-15T13:01:44;2.20;99.90
16980;DHT22;42288;52.182;21.156;2024-01-15T13:04:10;2.20;99.90
16980;DHT22;42288;52.182;21.156;2024-01-15T13:06:36;2.10;99.90
16980;DHT22;42288;52.182;21.156;2024-01-15T13:09:03;2.20;99.90
16980;DHT22;42288;52.182;21.156;2024-01-15T13:11:33;2.20;99.90
16980;DHT22;42288;52.182;21.156;2024-01-15T13:13:59;2.30;99.90
16980;DHT22;42288;52.182;21.156;2024-01-15T13:16:24;2.20;99.90
16980;DHT22;42288;52.182;21.156;2024-01-15T13:18:54;1.80;99.90
16980;DHT22;42288;52.182;21.156;2024-01-15T13:21:19;1.60;99.90
16980;DHT22;42288;52.182;21.156;2024-01-15T13:23:45;1.40;99.90
16980;DHT22;42288;52.182;21.156;2024-01-15T13:26:10;1.30;99.90
16980;DHT22;42288;52.182;21.156;2024-01-15T13:28:36;1.30;99.90
16980;DHT22;42288;52.182;21.156;2024-01-15T13:31:01;1.30;99.90
16980;DHT22;42288;52.182;21.156;2024-01-15T13:33:27;1.40;99.90
16980;DHT22;42288;52.182;21.156;2024-01-15T13:35:53;1.40;99.90
16980;DHT22;42288;52.182;21.156;2024-01-15T13:38:18;1.40;99.90
16980;DHT22;42288;52.182;21.156;2024-01-15T13:40:44;1.50;99.90
16980;DHT22;42288;52.182;21.156;2024-01-15T13:43:11;1.60;99.90
16980;DHT22;42288;52.182;21.156;2024-01-15T13:45:37;1.50;99.90
16980;DHT22;42288;52.182;21.156;2024-01-15T13:48:03;1.60;99.90
16980;DHT22;42288;52.182;21.156;2024-01-15T13:50:31;1.60;99.90
16980;DHT22;42288;52.182;21.156;2024-01-15T13:52:57;1.60;99.90
16980;DHT22;42288;52.182;21.156;2024-01-15T13:55:22;1.60;99.90
16980;DHT22;42288;52.182;21.156;2024-01-15T13:57:48;1.60;99.90
16980;DHT22;42288;52.182;21.156;2024-01-15T14:00:14;1.60;99.90
16980;DHT22;42288;52.182;21.156;2024-01-15T14:02:44;1.70;99.90
16980;DHT22;42288;52.182;21.156;2024-01-15T14:05:09;1.70;99.90
16980;DHT22;42288;52.182;21.156;2024-01-15T14:07:38;1.80;99.90
16980;DHT22;42288;52.182;21.156;2024-01-15T14:10:05;1.60;99.90
16980;DHT22;42288;52.182;21.156;2024-01-15T14:12:31;1.70;99.90
16980;DHT22;42288;52.182;21.156;2024-01-15T14:14:57;1.70;99.90
16980;DHT22;42288;52.182;21.156;2024-01-15T14:17:22;1.80;99.90
16980;DHT22;42288;52.182;21.156;2024-01-15T14:19:48;1.80;99.90
16980;DHT22;42288;52.182;21.156;2024-01-15T14:22:13;1.80;99.90
16980;DHT22;42288;52.182;21.156;2024-01-15T14:24:38;1.80;99.90
16980;DHT22;42288;52.182;21.156;2024-01-15T14:27:04;1.80;99.90
16980;DHT22;42288;52.182;21.156;2024-01-15T14:29:30;1.70;99.90
16980;DHT22;42288;52.182;21.156;2024-01-15T14:31:56;1.80;99.90
16980;DHT22;42288;52.182;21.156;2024-01-15T14:34:21;1.80;99.90
16980;DHT22;42288;52.182;21.156;2024-01-15T14:36:49;1.80;99.90
16980;DHT22;42288;52.182;21.156;2024-01-15T14:39:15;1.70;99.90
16980;DHT22;42288;52.182;21.156;2024-01-15T14:41:40;1.90;99.90
16980;DHT22;42288;52.182;21.156;2024-01-15T14:44:06;1.90;99.90
16980;DHT22;42288;52.182;21.156;2024-01-15T14:46:31;1.90;99.90
16980;DHT22;42288;52.182;21.156;2024-01-15T14:48:57;1.80;99.90
16980;DHT22;42288;52.182;21.156;2024-01-15T14:51:22;1.80;99.90
16980;DHT22;42288;52.182;21.156;2024-01-15T14:53:48;1.80;99.90
16980;DHT22;42288;52.182;21.156;2024-01-15T14:56:13;1.90;99.90
16980;DHT22;42288;52.182;21.156;2024-01-15T14:58:39;1.80;99.90
16980;DHT22;42288;52.182;21.156;2024-01-15T15:01:04;1.70;99.90
16980;DHT22;42288;52.182;21.156;2024-01-15T15:03:30;1.70;99.90
16980;DHT22;42288;52.182;21.156;2024-01-15T15:05:55;1.70;99.90
16980;DHT22;42288;52.182;21.156;2024-01-15T15:08:21;1.70;99.90
16980;DHT22;42288;52.182;21.156;2024-01-15T15:10:47;1.70;99.90
16980;DHT22;42288;52.182;21.156;2024-01-15T15:13:12;1.80;99.90
16980;DHT22;42288;52.182;21.156;2024-01-15T15:15:38;1.80;99.90
16980;DHT22;42288;52.182;21.156;2024-01-15T15:18:03;1.80;99.90
16980;DHT22;42288;52.182;21.156;2024-01-15T15:20:29;1.90;99.90
16980;DHT22;42288;52.182;21.156;2024-01-15T15:22:54;1.80;99.90
16980;DHT22;42288;52.182;21.156;2024-01-15T15:25:21;1.90;99.90
16980;DHT22;42288;52.182;21.156;2024-01-15T15:27:48;1.90;99.90
16980;DHT22;42288;52.182;21.156;2024-01-15T15:30:13;1.90;99.90
16980;DHT22;42288;52.182;21.156;2024-01-15T15:32:39;1.80;99.90
16980;DHT22;42288;52.182;21.156;2024-01-15T15:35:05;1.80;99.90